Old Orchard Beach, Maine
Current Conditions -  °F | °C
As of 11:51 AM on Thursday 18 Dec 2014 (Local Time) from KPWM Reporting Station
Broken Clouds Broken Clouds  
Wind Chill: 40°   Ceiling: 9500
Heat Index: 45°   Visibility: 10mi
Dew Point: 35°   Wind: 10mph
Humidity: 68%   Direction: 290°WNW
Pressure: 29.68"   Gusts: NA
Location:  43.52°N, 70.38°W
Report Text: KPWM 181651Z 29009KT 10SM SCT024 SCT060 BKN095 07/02 A2968 RMK AO2 SLP051 T00720017
Loading
Personal Weather Stations






























Interactive Weather Map New forecast layout! Learn more

10-Day Weather Forecast

Advertisements
Track Severe Weather on mobile